Terminal Aerodrome Forecast
Issued by NWS Northern Indiana

Home | Current Version | Previous Version | Text Only | Print | Product List | Glossary Off
Versions: 1 2 3 4 5 6 7 8 9 10 11 12 13 14 15 16 17 18

000
FTUS43 KIWX 182326
TAFFWA
TAF
KFWA 182326Z 1900/1924 33018G28KT P6SM -SHRA OVC015
     FM190500 31016G22KT P6SM OVC020
     FM191900 28016G22KT P6SM BKN035=

USA.gov is the U.S. government's official web portal to all federal, state and local government web resources and services.